HDAM

Djibouti-Ambouli Airport

Djibouti City, Djibouti
METAR HDAM 211400Z 10007KT 9999 FEW023 29/24 Q1015
Observed Flight Rules
Jan-21 @ 14:00 UTC (6 hours ago) Visual Flight Rules
Wind Visibility Clouds
100° at 7 knots 10,000+ meters
  • Few at 2,300' AGL
Temperatures Readings
Current 29°C / 84°F
Dewpoint 24°C / 75°F
Humidity 74%
Altimeter 29.97" Hg
Pressure 1014.92 hPa
Elevation 49
METAR HDAM 211400Z 10007KT 9999 FEW023 29/24 Q1015
Observed Flight Rules
Jan-21 @ 14:00 UTC
(6 hours ago)
VFR
Wind Visibility
100° at 7 knots 10,000+ meters
Clouds
  • Few at 2,300' AGL
Temperature Dewpoint
29°C / 84°F 24°C / 75°F
Humidity Altimeter Pressure
74% 29.97" Hg 1014.92 hPa